createdAt,value
2018-05-19T00:01:26.289Z,24.98
2018-05-19T00:03:53.769Z,12.02
2018-05-19T00:06:21.260Z,18.08
2018-05-19T00:08:48.780Z,23.40
2018-05-19T00:11:16.271Z,19.08
2018-05-19T00:13:43.768Z,15.18
2018-05-19T00:16:11.253Z,21.15
2018-05-19T00:18:38.747Z,20.60
2018-05-19T00:21:06.249Z,24.08
2018-05-19T00:23:33.770Z,20.30
2018-05-19T00:26:01.260Z,16.05
2018-05-19T00:28:28.762Z,19.20
2018-05-19T00:30:56.272Z,14.23
2018-05-19T00:33:24.576Z,26.20
2018-05-19T00:35:52.054Z,25.48
2018-05-19T00:38:19.516Z,18.80
2018-05-19T00:40:46.988Z,19.33
2018-05-19T00:43:14.460Z,23.05
2018-05-19T00:45:41.959Z,20.55
2018-05-19T00:48:09.479Z,19.90
2018-05-19T00:50:37.009Z,29.02
2018-05-19T00:53:04.485Z,17.45
2018-05-19T00:55:31.967Z,13.27
2018-05-19T00:57:59.453Z,22.40
2018-05-19T01:00:26.930Z,27.10
2018-05-19T01:02:54.418Z,16.05
2018-05-19T01:05:21.885Z,20.75
2018-05-19T01:07:49.354Z,20.83
2018-05-19T01:10:16.863Z,24.33
2018-05-19T01:12:45.137Z,24.60
2018-05-19T01:15:13.411Z,12.37
2018-05-19T01:17:40.897Z,15.35
2018-05-19T01:20:08.437Z,20.67
2018-05-19T01:22:36.726Z,21.45
2018-05-19T01:25:04.285Z,22.25
2018-05-19T01:27:31.795Z,13.32
2018-05-19T01:29:59.337Z,18.37
2018-05-19T01:32:26.817Z,26.25
2018-05-19T01:34:54.313Z,18.27
2018-05-19T01:37:21.830Z,19.98
2018-05-19T01:39:49.325Z,11.20
2018-05-19T01:42:16.827Z,18.20
2018-05-19T01:44:44.316Z,19.15
2018-05-19T01:47:11.801Z,19.02
2018-05-19T01:49:39.318Z,20.02
2018-05-19T01:52:06.794Z,20.50
2018-05-19T01:54:34.261Z,24.65
2018-05-19T01:57:02.563Z,22.13
2018-05-19T01:59:30.065Z,20.98
2018-05-19T02:01:57.574Z,20.08
2018-05-19T02:04:25.074Z,14.13
2018-05-19T02:06:52.565Z,20.25
2018-05-19T02:09:20.823Z,16.95
2018-05-19T02:11:48.314Z,15.82
2018-05-19T02:14:15.804Z,16.83
2018-05-19T02:16:43.370Z,21.87
2018-05-19T02:19:10.856Z,16.30
2018-05-19T02:21:38.363Z,18.55
2018-05-19T02:24:05.953Z,20.77
2018-05-19T02:26:33.442Z,17.42
2018-05-19T02:29:00.941Z,20.92
2018-05-19T02:31:28.537Z,15.18
2018-05-19T02:33:56.029Z,21.12
2018-05-19T02:36:23.554Z,18.77
2018-05-19T02:38:51.122Z,12.40
2018-05-19T02:41:18.681Z,18.83
2018-05-19T02:43:46.367Z,28.83
2018-05-19T02:46:14.041Z,19.65
2018-05-19T02:48:41.628Z,22.62
2018-05-19T02:51:09.272Z,15.05
2018-05-19T02:53:36.893Z,18.62
2018-05-19T02:56:04.514Z,22.83
2018-05-19T02:58:31.999Z,19.90
2018-05-19T03:00:59.575Z,15.73
2018-05-19T03:03:27.136Z,22.15
2018-05-19T03:05:55.074Z,19.40
2018-05-19T03:08:22.586Z,22.10
2018-05-19T03:10:50.873Z,16.33
2018-05-19T03:13:18.385Z,14.27
2018-05-19T03:15:45.947Z,15.80
2018-05-19T03:18:13.416Z,19.95
2018-05-19T03:20:40.970Z,22.13
2018-05-19T03:23:08.469Z,18.62
2018-05-19T03:25:35.960Z,16.85
2018-05-19T03:28:03.474Z,20.73
2018-05-19T03:30:31.012Z,19.73
2018-05-19T03:32:59.363Z,20.85
2018-05-19T03:35:26.860Z,20.30
2018-05-19T03:37:54.353Z,17.25
2018-05-19T03:40:21.869Z,18.40
2018-05-19T03:42:49.481Z,18.45
2018-05-19T03:45:16.984Z,16.62
2018-05-19T03:47:45.281Z,19.83
2018-05-19T03:50:13.331Z,16.33
2018-05-19T03:52:41.614Z,14.50
2018-05-19T03:55:09.975Z,17.35
2018-05-19T03:57:49.164Z,27.27
2018-05-19T04:00:28.469Z,20.75
2018-05-19T04:02:55.965Z,18.35
2018-05-19T04:05:23.950Z,29.67
2018-05-19T04:07:51.531Z,23.12
2018-05-19T04:10:19.174Z,21.83
2018-05-19T04:12:46.695Z,21.98
2018-05-19T04:15:14.242Z,23.77
2018-05-19T04:17:41.805Z,22.98
2018-05-19T04:20:09.485Z,18.95
2018-05-19T04:22:37.103Z,24.67
2018-05-19T04:25:04.873Z,24.10
2018-05-19T04:27:32.462Z,17.90
2018-05-19T04:30:00.035Z,26.65
2018-05-19T04:32:27.564Z,14.82
2018-05-19T04:34:55.182Z,21.10
2018-05-19T04:37:22.731Z,25.85
2018-05-19T04:39:50.302Z,29.23
2018-05-19T04:42:17.839Z,24.92
2018-05-19T04:44:45.393Z,20.80
2018-05-19T04:47:12.901Z,21.62
2018-05-19T04:49:40.465Z,24.52
2018-05-19T04:52:08.101Z,23.58
2018-05-19T04:54:35.735Z,26.25
2018-05-19T04:57:03.197Z,23.77
2018-05-19T04:59:30.798Z,27.95
2018-05-19T05:01:58.391Z,19.30
2018-05-19T05:04:25.910Z,33.03
2018-05-19T05:06:53.477Z,27.75
2018-05-19T05:09:20.992Z,21.65
2018-05-19T05:11:48.595Z,22.80
2018-05-19T05:14:16.133Z,26.30
2018-05-19T05:16:43.640Z,20.37
2018-05-19T05:19:11.963Z,24.98
2018-05-19T05:21:39.553Z,22.58
2018-05-19T05:24:08.174Z,32.28
2018-05-19T05:26:35.693Z,21.75
2018-05-19T05:29:03.205Z,27.77
2018-05-19T05:31:30.724Z,24.23
2018-05-19T05:33:58.440Z,29.20
2018-05-19T05:36:25.996Z,25.12
2018-05-19T05:38:53.534Z,21.48
2018-05-19T05:41:21.033Z,18.02
2018-05-19T05:43:48.800Z,21.17
2018-05-19T05:46:16.896Z,25.23
2018-05-19T05:48:44.452Z,29.80
2018-05-19T05:51:11.960Z,25.10
2018-05-19T05:53:39.571Z,24.75
2018-05-19T05:56:07.088Z,26.60
2018-05-19T05:58:34.634Z,26.87
2018-05-19T06:01:02.273Z,21.83
2018-05-19T06:03:29.853Z,22.30
2018-05-19T06:05:57.395Z,27.20
2018-05-19T06:08:27.428Z,28.70
2018-05-19T06:10:55.729Z,26.70
2018-05-19T06:13:23.205Z,20.60
2018-05-19T06:15:50.714Z,24.77
2018-05-19T06:18:18.252Z,26.20
2018-05-19T06:20:45.745Z,26.35
2018-05-19T06:23:13.247Z,26.08
2018-05-19T06:25:40.742Z,30.92
2018-05-19T06:28:08.250Z,31.75
2018-05-19T06:30:36.505Z,32.10
2018-05-19T06:33:04.025Z,23.12
2018-05-19T06:35:31.562Z,37.90
2018-05-19T06:37:59.191Z,28.08
2018-05-19T06:40:26.738Z,25.98
2018-05-19T06:42:54.215Z,27.80
2018-05-19T06:45:21.707Z,25.95
2018-05-19T06:47:49.209Z,27.55
2018-05-19T06:50:16.704Z,25.83
2018-05-19T06:52:44.955Z,28.30
2018-05-19T06:55:13.229Z,31.73
2018-05-19T06:57:40.735Z,22.33
2018-05-19T07:00:08.315Z,29.67
2018-05-19T07:02:35.862Z,30.55
2018-05-19T07:05:03.450Z,27.00
2018-05-19T07:07:30.944Z,25.10
2018-05-19T07:09:58.453Z,24.55
2018-05-19T07:12:26.440Z,26.15
2018-05-19T07:14:54.023Z,27.85
2018-05-19T07:17:21.528Z,24.37
2018-05-19T07:19:49.025Z,29.08
2018-05-19T07:22:16.529Z,28.50
2018-05-19T07:24:44.025Z,24.05
2018-05-19T07:27:12.015Z,34.90
2018-05-19T07:29:40.372Z,29.83
2018-05-19T07:32:18.996Z,28.38
2018-05-19T07:34:48.078Z,32.30
2018-05-19T07:37:15.864Z,28.02
2018-05-19T07:39:43.470Z,24.90
2018-05-19T07:42:11.681Z,24.12
2018-05-19T07:44:42.162Z,25.25
2018-05-19T07:47:36.416Z,28.45
2018-05-19T07:50:07.848Z,24.67
2018-05-19T07:52:41.217Z,27.15
2018-05-19T07:55:14.324Z,26.02
2018-05-19T08:03:40.274Z,31.87
2018-05-19T08:06:07.800Z,26.75
2018-05-19T08:08:35.284Z,37.15
2018-05-19T08:11:02.973Z,20.92
2018-05-19T08:13:30.456Z,36.13
2018-05-19T08:15:57.995Z,23.12
2018-05-19T08:18:25.486Z,21.12
2018-05-19T08:20:53.002Z,27.13
2018-05-19T08:23:20.465Z,29.60
2018-05-19T08:25:47.946Z,24.48
2018-05-19T08:28:15.421Z,23.33
2018-05-19T08:30:42.912Z,28.52
2018-05-19T08:33:10.401Z,34.80
2018-05-19T08:35:37.889Z,29.15
2018-05-19T08:38:05.385Z,27.62
2018-05-19T08:40:32.947Z,24.70
2018-05-19T08:43:00.434Z,29.10
2018-05-19T08:45:27.995Z,24.67
2018-05-19T08:47:55.530Z,27.40
2018-05-19T08:50:23.021Z,31.20
2018-05-19T08:52:50.582Z,27.35
2018-05-19T08:55:18.446Z,38.85
2018-05-19T08:57:45.949Z,28.25
2018-05-19T09:00:13.419Z,34.13
2018-05-19T09:02:40.923Z,27.90
2018-05-19T09:05:08.545Z,25.25
2018-05-19T09:07:36.056Z,27.37
2018-05-19T09:10:03.530Z,27.50
2018-05-19T09:12:31.043Z,30.95
2018-05-19T09:14:58.567Z,25.50
2018-05-19T09:17:26.067Z,30.50
2018-05-19T09:20:02.217Z,24.50
2018-05-19T09:22:30.489Z,24.20
2018-05-19T09:24:57.956Z,29.40
2018-05-19T09:27:25.441Z,34.13
2018-05-19T09:29:53.286Z,22.83
2018-05-19T09:32:20.745Z,23.05
2018-05-19T09:34:48.329Z,25.15
2018-05-19T09:37:15.839Z,22.10
2018-05-19T09:39:43.367Z,25.30
2018-05-19T09:42:10.881Z,19.48
2018-05-19T09:44:38.429Z,25.67
2018-05-19T09:47:06.686Z,26.27
2018-05-19T09:49:34.232Z,22.48
2018-05-19T09:52:02.013Z,21.33
2018-05-19T09:54:29.549Z,23.08
2018-05-19T09:56:57.066Z,16.83
2018-05-19T09:59:24.732Z,24.27
2018-05-19T10:01:52.435Z,22.63
2018-05-19T10:04:20.003Z,15.30
2018-05-19T10:06:47.564Z,17.55
2018-05-19T10:09:15.096Z,21.90
2018-05-19T10:11:42.641Z,18.02
2018-05-19T10:14:11.297Z,20.42
2018-05-19T10:16:38.946Z,19.80
2018-05-19T10:19:06.485Z,21.40
2018-05-19T10:21:34.061Z,14.57
2018-05-19T10:24:02.948Z,14.87
2018-05-19T10:26:30.608Z,13.73
2018-05-19T10:28:58.190Z,15.33
2018-05-19T10:31:25.804Z,19.10
2018-05-19T10:33:53.422Z,16.40
2018-05-19T10:36:20.945Z,15.30
2018-05-19T10:38:48.469Z,18.87
2018-05-19T10:41:15.972Z,14.07
2018-05-19T10:43:43.552Z,14.33
2018-05-19T10:46:11.138Z,15.83
2018-05-19T10:48:38.676Z,12.83
2018-05-19T10:51:06.878Z,16.30
2018-05-19T10:53:34.395Z,11.73
2018-05-19T10:56:01.897Z,12.30
2018-05-19T10:58:29.582Z,15.60
2018-05-19T11:00:58.294Z,13.20
2018-05-19T11:03:26.627Z,14.97
2018-05-19T11:05:54.129Z,14.73
2018-05-19T11:08:21.727Z,12.27
2018-05-19T11:10:49.268Z,13.23
2018-05-19T11:13:16.855Z,15.30
2018-05-19T11:15:46.583Z,18.77
2018-05-19T11:18:14.391Z,16.73
2018-05-19T11:20:42.013Z,10.47
2018-05-19T11:23:09.627Z,10.70
2018-05-19T11:25:38.115Z,11.77
2018-05-19T11:28:06.133Z,12.57
2018-05-19T11:30:36.027Z,11.10
2018-05-19T11:33:03.955Z,11.30
2018-05-19T11:35:31.555Z,11.50
2018-05-19T11:37:59.179Z,11.53
2018-05-19T11:40:26.668Z,12.33
2018-05-19T11:42:54.155Z,11.03
2018-05-19T11:45:21.664Z,13.67
2018-05-19T11:47:49.224Z,13.87
2018-05-19T11:50:16.709Z,13.17
2018-05-19T11:52:45.274Z,13.13
2018-05-19T11:55:12.817Z,11.73
2018-05-19T11:57:40.345Z,12.30
2018-05-19T12:00:07.879Z,16.50
2018-05-19T12:02:35.402Z,14.03
2018-05-19T12:05:02.970Z,14.50
2018-05-19T12:07:30.472Z,14.07
2018-05-19T12:09:58.252Z,15.90
2018-05-19T12:12:26.895Z,13.43
2018-05-19T12:14:54.403Z,14.87
2018-05-19T12:17:21.916Z,10.77
2018-05-19T12:19:49.481Z,11.23
2018-05-19T12:22:17.695Z,20.33
2018-05-19T12:24:46.012Z,13.40
2018-05-19T12:27:14.871Z,14.60
2018-05-19T12:29:44.479Z,19.33
2018-05-19T12:32:12.919Z,13.10
2018-05-19T12:34:41.843Z,15.67
2018-05-19T12:37:10.727Z,15.17
2018-05-19T12:39:39.311Z,12.53
2018-05-19T12:42:07.898Z,16.13
2018-05-19T12:44:35.739Z,14.30
2018-05-19T12:47:04.091Z,13.43
2018-05-19T12:49:34.701Z,13.70
2018-05-19T12:52:02.401Z,11.23
2018-05-19T12:54:30.951Z,16.03
2018-05-19T12:56:59.598Z,15.40
2018-05-19T12:59:27.380Z,12.00
2018-05-19T13:01:55.098Z,15.37
2018-05-19T13:04:23.495Z,12.90
2018-05-19T13:06:51.002Z,13.90
2018-05-19T13:09:18.583Z,15.50
2018-05-19T13:11:47.656Z,16.33
2018-05-19T13:14:15.345Z,12.67
2018-05-19T13:16:42.874Z,14.37
2018-05-19T13:19:10.372Z,10.50
2018-05-19T13:21:37.900Z,12.23
2018-05-19T13:24:05.450Z,10.23
2018-05-19T13:26:33.068Z,11.43
2018-05-19T13:29:00.577Z,12.00
2018-05-19T13:31:28.176Z,16.53
2018-05-19T13:33:56.010Z,9.40
2018-05-19T13:36:23.738Z,10.70
2018-05-19T13:38:51.328Z,11.00
2018-05-19T13:41:19.106Z,8.87
2018-05-19T13:43:46.605Z,11.60
2018-05-19T13:46:14.107Z,10.07
2018-05-19T13:48:41.598Z,9.83
2018-05-19T13:51:09.226Z,12.20
2018-05-19T13:53:36.741Z,8.67
2018-05-19T13:56:04.205Z,9.90
2018-05-19T13:58:31.701Z,8.10
2018-05-19T14:00:59.344Z,11.97
2018-05-19T14:03:26.809Z,13.83
2018-05-19T14:05:54.442Z,12.50
2018-05-19T14:08:22.470Z,8.00
2018-05-19T14:10:49.980Z,14.33
2018-05-19T14:13:17.472Z,10.70
2018-05-19T14:15:45.206Z,8.93
2018-05-19T14:18:12.836Z,8.90
2018-05-19T14:20:40.425Z,9.20
2018-05-19T14:23:07.942Z,10.37
2018-05-19T14:25:35.516Z,8.47
2018-05-19T14:28:03.041Z,9.50
2018-05-19T14:30:30.674Z,12.40
2018-05-19T14:32:58.287Z,9.80
2018-05-19T14:35:25.926Z,10.00
2018-05-19T14:37:53.493Z,9.90
2018-05-19T14:40:21.098Z,10.90
2018-05-19T14:42:48.621Z,11.83
2018-05-19T14:45:16.237Z,12.77
2018-05-19T14:47:43.792Z,10.60
2018-05-19T14:50:11.347Z,11.47
2018-05-19T14:52:38.910Z,8.80
2018-05-19T14:55:06.506Z,11.33
2018-05-19T14:57:34.082Z,12.57
2018-05-19T15:00:01.619Z,16.73
2018-05-19T15:02:29.119Z,13.90
2018-05-19T15:04:56.690Z,15.77
2018-05-19T15:07:24.204Z,9.80
2018-05-19T15:09:51.833Z,12.50
2018-05-19T15:12:20.567Z,14.33
2018-05-19T15:14:48.105Z,10.07
2018-05-19T15:17:15.970Z,11.50
2018-05-19T15:19:43.521Z,8.83
2018-05-19T15:22:11.066Z,13.50
2018-05-19T15:24:38.607Z,10.17
2018-05-19T15:27:06.177Z,10.20
2018-05-19T15:29:33.711Z,36.03
2018-05-19T15:32:01.216Z,17.70
2018-05-19T15:34:28.701Z,10.00
2018-05-19T15:36:56.212Z,14.53
2018-05-19T15:39:23.694Z,16.23
2018-05-19T15:41:51.547Z,11.53
2018-05-19T15:44:19.044Z,12.40
2018-05-19T15:46:46.860Z,14.10
2018-05-19T15:49:14.579Z,11.47
2018-05-19T15:51:42.393Z,19.73
2018-05-19T15:54:10.345Z,12.20
2018-05-19T15:56:38.050Z,11.60
2018-05-19T15:59:06.005Z,16.57
2018-05-19T16:01:33.693Z,21.63
2018-05-19T16:04:01.198Z,14.70
2018-05-19T16:06:28.782Z,13.07
2018-05-19T16:08:56.285Z,16.60
2018-05-19T16:11:23.806Z,17.07
2018-05-19T16:13:51.335Z,14.50
2018-05-19T16:16:19.265Z,11.97
2018-05-19T16:18:47.051Z,21.43
2018-05-19T16:21:14.544Z,17.37
2018-05-19T16:23:42.094Z,16.83
2018-05-19T16:26:09.772Z,13.87
2018-05-19T16:28:37.261Z,14.30
2018-05-19T16:31:04.817Z,17.93
2018-05-19T16:33:32.340Z,14.30
2018-05-19T16:36:00.657Z,15.90
2018-05-19T16:38:30.157Z,18.77
2018-05-19T16:40:57.674Z,19.07
2018-05-19T16:43:25.171Z,22.37
2018-05-19T16:45:53.494Z,17.20
2018-05-19T16:48:21.051Z,15.30
2018-05-19T16:50:52.394Z,18.83
2018-05-19T16:53:20.501Z,19.43
2018-05-19T16:55:48.221Z,15.73
2018-05-19T16:58:15.720Z,16.93
2018-05-19T17:00:43.221Z,16.60
2018-05-19T17:03:10.861Z,16.13
2018-05-19T17:05:38.856Z,17.53
2018-05-19T17:08:06.435Z,14.83
2018-05-19T17:10:33.950Z,22.10
2018-05-19T17:13:01.467Z,18.33
2018-05-19T17:15:29.144Z,20.67
2018-05-19T17:17:56.989Z,15.50
2018-05-19T17:20:24.659Z,15.50
2018-05-19T17:22:52.198Z,18.57
2018-05-19T17:25:19.721Z,18.40
2018-05-19T17:27:47.227Z,17.83
2018-05-19T17:30:14.777Z,21.23
2018-05-19T17:32:42.307Z,19.37
2018-05-19T17:35:09.830Z,15.07
2018-05-19T17:37:38.614Z,18.47
2018-05-19T17:40:06.155Z,18.70
2018-05-19T17:42:33.673Z,17.70
2018-05-19T17:45:01.165Z,15.87
2018-05-19T17:47:28.684Z,15.37
2018-05-19T17:49:56.169Z,18.87
2018-05-19T17:52:23.639Z,15.27
2018-05-19T17:54:51.257Z,15.50
2018-05-19T17:57:18.793Z,19.50
2018-05-19T17:59:46.323Z,17.43
2018-05-19T18:02:15.966Z,14.43
2018-05-19T18:04:43.462Z,17.37
2018-05-19T18:07:11.179Z,12.50
2018-05-19T18:09:38.712Z,20.47
2018-05-19T18:12:06.214Z,16.50
2018-05-19T18:14:33.699Z,17.97
2018-05-19T18:17:01.191Z,23.67
2018-05-19T18:19:28.679Z,17.97
2018-05-19T18:21:56.304Z,19.60
2018-05-19T18:24:27.280Z,15.50
2018-05-19T18:26:55.968Z,20.67
2018-05-19T18:29:23.589Z,24.05
2018-05-19T18:31:51.085Z,17.27
2018-05-19T18:34:18.573Z,10.65
2018-05-19T18:36:46.110Z,19.62
2018-05-19T18:39:13.631Z,20.67
2018-05-19T18:41:41.170Z,14.55
2018-05-19T18:44:08.667Z,15.65
2018-05-19T18:46:36.916Z,12.05
2018-05-19T18:49:04.446Z,21.12
2018-05-19T18:51:33.974Z,11.65
2018-05-19T18:54:01.509Z,15.00
2018-05-19T18:56:29.005Z,13.75
2018-05-19T18:59:00.453Z,17.52
2018-05-19T19:01:28.000Z,15.32
2018-05-19T19:03:55.523Z,16.98
2018-05-19T19:06:23.042Z,14.35
2018-05-19T19:08:51.366Z,18.33
2018-05-19T19:11:18.848Z,18.80
2018-05-19T19:13:46.361Z,16.80
2018-05-19T19:16:13.884Z,14.68
2018-05-19T19:18:41.448Z,19.90
2018-05-19T19:21:08.919Z,18.42
2018-05-19T19:23:36.389Z,16.80
2018-05-19T19:26:03.933Z,14.55
2018-05-19T19:28:32.214Z,22.02
2018-05-19T19:30:59.724Z,14.65
2018-05-19T19:33:27.280Z,17.65
2018-05-19T19:35:54.865Z,24.50
2018-05-19T19:38:22.347Z,19.58
2018-05-19T19:40:50.874Z,17.90
2018-05-19T19:43:18.390Z,17.87
2018-05-19T19:45:46.084Z,12.77
2018-05-19T19:48:13.647Z,12.77
2018-05-19T19:50:41.339Z,12.45
2018-05-19T19:53:08.834Z,12.57
2018-05-19T19:55:36.323Z,9.98
2018-05-19T19:58:05.484Z,12.40
2018-05-19T20:00:33.759Z,9.32
2018-05-19T20:03:02.029Z,11.48
2018-05-19T20:05:29.542Z,9.35
2018-05-19T20:07:57.055Z,12.35
2018-05-19T20:10:25.413Z,8.63
2018-05-19T20:12:52.921Z,8.18
2018-05-19T20:15:20.441Z,7.15
2018-05-19T20:17:47.952Z,9.98
2018-05-19T20:20:15.533Z,8.68
2018-05-19T20:22:43.721Z,6.90
2018-05-19T20:25:11.344Z,7.20
2018-05-19T20:27:38.844Z,8.13
2018-05-19T20:30:07.102Z,7.25
2018-05-19T20:32:34.614Z,6.40
2018-05-19T20:35:02.086Z,7.07
2018-05-19T20:37:29.568Z,7.45
2018-05-19T20:39:57.044Z,9.25
2018-05-19T20:42:24.551Z,6.47
2018-05-19T20:44:52.031Z,5.97
2018-05-19T20:47:19.501Z,9.50
2018-05-19T20:49:46.989Z,11.00
2018-05-19T20:52:14.501Z,8.75
2018-05-19T20:54:41.972Z,8.93
2018-05-19T20:57:09.452Z,8.48
2018-05-19T20:59:37.698Z,7.32
2018-05-19T21:02:05.187Z,7.70
2018-05-19T21:04:33.447Z,9.13
2018-05-19T21:07:00.928Z,10.73
2018-05-19T21:09:29.168Z,7.97
2018-05-19T21:11:56.652Z,8.57
2018-05-19T21:14:24.896Z,10.40
2018-05-19T21:16:52.379Z,5.90
2018-05-19T21:19:19.845Z,8.43
2018-05-19T21:21:47.343Z,5.72
2018-05-19T21:24:14.857Z,7.43
2018-05-19T21:26:42.320Z,8.20
2018-05-19T21:29:09.776Z,8.68
2018-05-19T21:31:37.996Z,6.43
2018-05-19T21:34:05.481Z,9.85
2018-05-19T21:36:32.956Z,11.70
2018-05-19T21:39:01.215Z,6.00
2018-05-19T21:41:28.701Z,5.43
2018-05-19T21:43:56.169Z,5.70
2018-05-19T21:46:23.632Z,8.95
2018-05-19T21:48:51.080Z,6.70
2018-05-19T21:51:18.571Z,8.52
2018-05-19T21:53:46.045Z,6.62
2018-05-19T21:56:13.517Z,4.72
2018-05-19T21:58:40.994Z,5.32
2018-05-19T22:01:09.231Z,5.12
2018-05-19T22:03:36.720Z,4.87
2018-05-19T22:06:04.960Z,6.78
2018-05-19T22:08:32.461Z,4.25
2018-05-19T22:10:59.930Z,5.07
2018-05-19T22:13:27.411Z,6.97
2018-05-19T22:15:54.905Z,4.57
2018-05-19T22:18:22.384Z,6.05
2018-05-19T22:20:50.673Z,6.65
2018-05-19T22:23:18.134Z,5.50
2018-05-19T22:25:46.375Z,5.85
2018-05-19T22:28:13.850Z,6.35
2018-05-19T22:30:41.317Z,6.78
2018-05-19T22:33:08.834Z,4.65
2018-05-19T22:35:36.315Z,5.10
2018-05-19T22:38:03.773Z,4.85
2018-05-19T22:40:32.017Z,4.50
2018-05-19T22:42:59.456Z,5.07
2018-05-19T22:45:26.974Z,6.20
2018-05-19T22:47:54.437Z,5.03
2018-05-19T22:50:21.956Z,4.28
2018-05-19T22:52:49.424Z,4.60
2018-05-19T22:55:16.918Z,4.90
2018-05-19T22:57:44.369Z,5.32
2018-05-19T23:00:11.841Z,4.25
2018-05-19T23:02:39.320Z,4.75
2018-05-19T23:05:06.779Z,5.20
2018-05-19T23:07:34.249Z,14.35
2018-05-19T23:10:01.757Z,5.93
2018-05-19T23:12:29.233Z,6.90
2018-05-19T23:14:56.707Z,4.60
2018-05-19T23:17:24.183Z,5.62
2018-05-19T23:19:51.637Z,5.15
2018-05-19T23:22:30.760Z,4.30
2018-05-19T23:24:58.251Z,6.10
2018-05-19T23:27:25.756Z,4.65
2018-05-19T23:29:53.229Z,5.97
2018-05-19T23:32:20.706Z,4.70
2018-05-19T23:34:48.192Z,5.40
2018-05-19T23:37:16.428Z,4.47
2018-05-19T23:39:43.945Z,6.43
2018-05-19T23:42:11.417Z,7.03
2018-05-19T23:44:38.932Z,4.85
2018-05-19T23:47:06.405Z,4.30
2018-05-19T23:49:33.891Z,8.88
2018-05-19T23:52:01.361Z,6.10
2018-05-19T23:54:28.864Z,5.10
2018-05-19T23:56:56.333Z,5.85
2018-05-19T23:59:24.591Z,11.12
